Time;durP1;ratioP1;P1;durP2;ratioP2;P2;SDS_P1;SDS_P2;PMS_P1;PMS_P2;Temp;Humidity;BMP_temperature;BMP_pressure;BME280_temperature;BME280_humidity;BME280_pressure;Samples;Min_cycle;Max_cycle;Signal;HPM_P1;HPM_P2
2023/11/20 00:01:23;;;;;;;11.47;1.77;;;11.20;99.90;;;;;;5150978;27;20027;-79
2023/11/20 00:03:55;;;;;;;8.73;1.40;;;11.30;99.90;;;;;;5170228;27;20023;-82
2023/11/20 00:06:30;;;;;;;13.33;2.10;;;11.30;99.90;;;;;;5144540;27;20023;-80
2023/11/20 00:08:59;;;;;;;6.50;1.47;;;11.40;99.90;;;;;;5148125;28;20071;-83
2023/11/20 00:11:27;;;;;;;9.43;1.57;;;11.40;99.90;;;;;;5150086;28;20034;-81
2023/11/20 00:13:56;;;;;;;6.30;1.23;;;11.40;99.90;;;;;;5154627;27;20019;-81
2023/11/20 00:16:22;;;;;;;6.73;1.47;;;11.30;99.90;;;;;;5154468;27;20007;-82
2023/11/20 00:18:56;;;;;;;6.60;1.53;;;11.50;99.90;;;;;;5143329;27;20375;-79
2023/11/20 00:21:31;;;;;;;6.07;1.10;;;11.50;99.90;;;;;;5136204;28;20023;-79
2023/11/20 00:24:00;;;;;;;12.73;1.87;;;11.50;99.90;;;;;;5138718;28;20095;-77
2023/11/20 00:26:33;;;;;;;7.00;1.50;;;11.50;99.90;;;;;;5135157;28;20036;-78
2023/11/20 00:29:03;;;;;;;11.47;2.23;;;11.50;99.90;;;;;;5140473;28;20036;-76
2023/11/20 00:31:38;;;;;;;5.57;1.33;;;11.50;99.90;;;;;;5143024;27;20011;-75
2023/11/20 00:34:04;;;;;;;16.50;2.30;;;11.50;99.90;;;;;;5138576;27;20028;-76
2023/11/20 00:36:30;;;;;;;8.93;2.00;;;11.40;99.90;;;;;;5134760;27;20032;-77
2023/11/20 00:39:03;;;;;;;9.57;2.00;;;11.30;99.90;;;;;;5135771;27;20108;-78
2023/11/20 00:41:31;;;;;;;11.83;1.93;;;11.20;99.90;;;;;;5145989;27;20054;-78
2023/11/20 00:43:59;;;;;;;14.53;2.13;;;11.10;99.90;;;;;;5136356;27;20031;-77
2023/11/20 00:46:25;;;;;;;10.87;2.10;;;11.10;99.90;;;;;;5137212;27;20028;-77
2023/11/20 00:48:51;;;;;;;14.90;2.73;;;11.00;99.90;;;;;;5136090;27;20070;-81
2023/11/20 00:51:22;;;;;;;7.67;2.00;;;10.90;99.90;;;;;;5137462;27;20032;-78
2023/11/20 00:53:52;;;;;;;14.43;2.30;;;10.90;99.90;;;;;;5140562;27;20023;-78
2023/11/20 00:56:19;;;;;;;10.73;2.30;;;10.90;99.90;;;;;;5144791;27;20038;-77
2023/11/20 00:58:44;;;;;;;12.87;2.53;;;10.90;99.90;;;;;;5144564;27;20111;-78
2023/11/20 01:01:10;;;;;;;15.13;2.63;;;10.90;99.90;;;;;;5144008;27;20023;-80
2023/11/20 01:03:37;;;;;;;15.90;2.67;;;11.00;99.90;;;;;;5145687;27;20036;-76
2023/11/20 01:06:04;;;;;;;12.90;2.37;;;10.90;99.90;;;;;;5147141;27;20019;-74
2023/11/20 01:08:33;;;;;;;17.63;2.67;;;10.90;99.90;;;;;;5145489;27;20015;-77
2023/11/20 01:11:04;;;;;;;15.03;2.23;;;10.90;99.90;;;;;;5152537;27;20031;-78
2023/11/20 01:13:32;;;;;;;11.63;2.20;;;10.90;99.90;;;;;;5145960;27;20037;-77
2023/11/20 01:15:57;;;;;;;15.70;2.77;;;10.90;99.90;;;;;;5143965;27;20122;-77
2023/11/20 01:18:23;;;;;;;15.10;2.47;;;10.80;99.90;;;;;;5143670;27;20034;-80
2023/11/20 01:20:49;;;;;;;14.10;2.30;;;10.90;99.90;;;;;;5144628;27;20026;-77
2023/11/20 01:23:17;;;;;;;16.80;3.27;;;10.90;99.90;;;;;;5142238;27;20491;-76
2023/11/20 01:25:42;;;;;;;25.77;2.67;;;10.90;99.90;;;;;;5141707;27;20066;-76
2023/11/20 01:28:08;;;;;;;13.67;2.27;;;10.80;99.90;;;;;;5144828;27;20039;-77
2023/11/20 01:30:36;;;;;;;11.27;2.20;;;10.90;99.90;;;;;;5144797;27;20032;-77
2023/11/20 01:33:04;;;;;;;21.07;3.20;;;10.90;99.90;;;;;;5153423;27;20028;-76
2023/11/20 01:35:29;;;;;;;16.03;2.30;;;10.90;99.90;;;;;;5143701;27;20280;-79
2023/11/20 01:37:55;;;;;;;15.17;2.60;;;10.90;99.90;;;;;;5146896;27;20099;-74
2023/11/20 01:40:20;;;;;;;10.17;2.43;;;10.90;99.90;;;;;;5143664;27;20038;-77
2023/11/20 01:42:46;;;;;;;15.70;3.03;;;10.90;99.90;;;;;;5144038;27;20030;-79
2023/11/20 01:45:12;;;;;;;9.93;2.20;;;10.90;99.90;;;;;;5143410;27;20035;-78
2023/11/20 01:47:43;;;;;;;11.40;1.50;;;10.90;99.90;;;;;;5154233;27;20105;-76
2023/11/20 01:50:13;;;;;;;12.82;2.10;;;10.80;99.90;;;;;;5145118;27;20035;-80
2023/11/20 01:52:44;;;;;;;12.87;2.33;;;10.80;99.90;;;;;;5142726;27;20023;-77
2023/11/20 01:55:14;;;;;;;8.02;1.75;;;10.70;99.90;;;;;;5144320;27;20043;-78
2023/11/20 01:57:44;;;;;;;14.33;2.60;;;10.70;99.90;;;;;;5144985;27;20031;-76
2023/11/20 02:00:11;;;;;;;9.00;1.23;;;10.70;99.90;;;;;;5147989;27;20022;-80
2023/11/20 02:02:40;;;;;;;12.27;1.97;;;10.70;99.90;;;;;;5142629;27;20157;-78
2023/11/20 02:05:06;;;;;;;12.13;1.43;;;10.70;99.90;;;;;;5139554;27;20032;-78
2023/11/20 02:07:33;;;;;;;13.67;1.77;;;10.60;99.90;;;;;;5144064;27;20057;-76
2023/11/20 02:10:02;;;;;;;9.70;2.40;;;10.60;99.90;;;;;;5142676;27;20035;-77
2023/11/20 02:12:30;;;;;;;11.13;1.87;;;10.50;99.90;;;;;;5145063;27;20027;-78
2023/11/20 02:14:56;;;;;;;14.83;2.40;;;10.50;99.90;;;;;;5145508;27;20028;-76
2023/11/20 02:17:22;;;;;;;9.97;1.50;;;10.50;99.90;;;;;;5143245;27;20074;-78
2023/11/20 02:19:50;;;;;;;12.10;2.10;;;10.50;99.90;;;;;;5143272;27;20024;-76
2023/11/20 02:22:18;;;;;;;11.07;2.10;;;10.40;99.90;;;;;;5142333;27;20034;-75
2023/11/20 02:24:45;;;;;;;11.90;2.00;;;10.40;99.90;;;;;;5140793;27;20042;-77
2023/11/20 02:27:35;;;;;;;11.60;2.27;;;10.40;99.90;;;;;;5148881;27;20027;-77
2023/11/20 02:30:05;;;;;;;13.63;2.13;;;10.40;99.90;;;;;;5140471;27;20755;-79
2023/11/20 02:32:31;;;;;;;12.00;2.20;;;10.40;99.90;;;;;;5141000;27;20027;-78
2023/11/20 02:34:57;;;;;;;17.03;2.20;;;10.40;99.90;;;;;;5142521;27;20047;-80
2023/11/20 02:37:23;;;;;;;16.00;3.17;;;10.40;99.90;;;;;;5144300;27;20055;-80
2023/11/20 02:39:54;;;;;;;14.07;1.83;;;10.50;99.90;;;;;;5145557;27;20027;-78
2023/11/20 02:42:22;;;;;;;9.73;2.00;;;10.50;99.90;;;;;;5137341;27;20023;-78
2023/11/20 02:44:48;;;;;;;12.20;2.53;;;10.50;99.90;;;;;;5134625;27;20035;-79
2023/11/20 02:47:14;;;;;;;16.17;2.53;;;10.50;99.90;;;;;;5134520;27;20032;-80
2023/11/20 02:49:40;;;;;;;18.10;2.50;;;10.60;99.90;;;;;;5138681;27;20027;-75
2023/11/20 02:52:06;;;;;;;11.30;1.97;;;10.60;99.90;;;;;;5132136;27;20039;-78
2023/11/20 02:54:35;;;;;;;12.07;2.13;;;10.70;99.90;;;;;;5143667;27;20042;-78
2023/11/20 02:57:04;;;;;;;9.40;1.57;;;10.70;99.90;;;;;;5133686;27;20024;-77
2023/11/20 02:59:32;;;;;;;7.27;2.00;;;10.70;99.90;;;;;;5134052;27;20027;-77
2023/11/20 03:01:58;;;;;;;10.73;1.50;;;10.70;99.90;;;;;;5132755;27;20103;-77
2023/11/20 03:04:24;;;;;;;8.53;1.53;;;10.70;99.90;;;;;;5133467;27;20034;-76
2023/11/20 03:06:53;;;;;;;10.77;1.50;;;10.70;99.90;;;;;;5150496;27;20035;-79
2023/11/20 03:09:19;;;;;;;5.07;1.27;;;10.70;99.90;;;;;;5140425;27;20042;-78
2023/11/20 03:11:45;;;;;;;10.67;2.37;;;10.80;99.90;;;;;;5150345;27;20043;-78
2023/11/20 03:14:12;;;;;;;11.17;1.80;;;10.80;99.90;;;;;;5134808;27;20324;-76
2023/11/20 03:16:40;;;;;;;13.97;2.77;;;10.90;99.90;;;;;;5133863;27;20047;-79
2023/11/20 03:19:06;;;;;;;6.47;1.30;;;10.90;99.90;;;;;;5133005;27;20110;-79
2023/11/20 03:21:33;;;;;;;12.97;1.50;;;10.90;99.90;;;;;;5133445;27;20019;-77
2023/11/20 03:23:59;;;;;;;10.33;1.70;;;10.90;99.90;;;;;;5133057;27;20189;-77
2023/11/20 03:26:28;;;;;;;9.97;1.67;;;10.90;99.90;;;;;;5130382;27;20031;-77
2023/11/20 03:28:54;;;;;;;7.33;1.40;;;10.80;99.90;;;;;;5132568;27;20043;-75
2023/11/20 03:31:19;;;;;;;13.03;1.43;;;10.80;99.90;;;;;;5132422;27;20045;-79
2023/11/20 03:33:48;;;;;;;6.83;1.30;;;10.80;99.90;;;;;;5137531;27;20098;-76
2023/11/20 03:36:14;;;;;;;7.20;1.87;;;10.80;99.90;;;;;;5130914;28;20032;-76
2023/11/20 03:38:40;;;;;;;7.87;1.33;;;10.80;99.90;;;;;;5132938;28;20020;-78
2023/11/20 03:41:06;;;;;;;7.90;1.47;;;10.80;99.90;;;;;;5134629;27;20062;-77
2023/11/20 03:43:32;;;;;;;7.27;1.10;;;10.80;99.90;;;;;;5130912;28;20027;-77
2023/11/20 03:45:58;;;;;;;6.83;1.47;;;10.80;99.90;;;;;;5142242;28;20033;-76
2023/11/20 03:48:25;;;;;;;5.97;1.00;;;10.90;99.90;;;;;;5134017;27;20154;-75
2023/11/20 03:50:53;;;;;;;11.63;2.37;;;10.90;99.90;;;;;;5134607;28;20087;-78
2023/11/20 03:53:19;;;;;;;14.03;1.20;;;10.90;99.90;;;;;;5149010;27;20026;-79
2023/11/20 03:55:45;;;;;;;4.53;1.10;;;10.90;99.90;;;;;;5130898;28;20053;-76
2023/11/20 03:58:10;;;;;;;6.60;0.87;;;10.90;99.90;;;;;;5131973;27;20031;-78
2023/11/20 04:00:36;;;;;;;7.03;1.37;;;10.90;99.90;;;;;;5141914;28;20186;-78
2023/11/20 04:03:02;;;;;;;8.60;1.50;;;10.90;99.90;;;;;;5132184;28;20039;-79
2023/11/20 04:05:32;;;;;;;7.07;1.23;;;10.90;99.90;;;;;;5140870;27;20476;-77
2023/11/20 04:08:00;;;;;;;6.97;1.10;;;10.90;99.90;;;;;;5135794;27;20023;-78
2023/11/20 04:10:26;;;;;;;3.83;1.10;;;10.90;99.90;;;;;;5139420;27;20040;-80
2023/11/20 04:12:51;;;;;;;5.63;0.90;;;10.90;99.90;;;;;;5138848;27;20057;-77
2023/11/20 04:15:17;;;;;;;11.17;1.33;;;10.90;99.90;;;;;;5134923;27;20043;-79
2023/11/20 04:17:45;;;;;;;7.90;1.20;;;10.90;99.90;;;;;;5134483;27;20027;-77
2023/11/20 04:20:11;;;;;;;7.90;1.23;;;10.80;99.90;;;;;;5154496;27;20094;-78
2023/11/20 04:22:42;;;;;;;4.40;1.10;;;10.80;99.90;;;;;;5137924;27;20042;-75
2023/11/20 04:25:08;;;;;;;5.97;1.00;;;10.70;99.90;;;;;;5136689;27;20039;-81
2023/11/20 04:27:34;;;;;;;7.23;1.57;;;10.70;99.90;;;;;;5139768;27;20046;-78
2023/11/20 04:30:02;;;;;;;8.43;1.67;;;10.80;99.90;;;;;;5136788;27;20059;-79
2023/11/20 04:32:28;;;;;;;5.40;1.10;;;10.80;99.90;;;;;;5135480;27;20181;-76
2023/11/20 04:34:56;;;;;;;8.80;1.30;;;10.80;99.90;;;;;;5134153;27;20125;-79
2023/11/20 04:37:21;;;;;;;2.37;0.67;;;10.80;99.90;;;;;;5139570;27;20035;-76
2023/11/20 04:39:49;;;;;;;4.13;1.10;;;10.90;99.90;;;;;;5137786;27;20541;-79
2023/11/20 04:42:15;;;;;;;8.73;1.90;;;10.80;99.90;;;;;;5145161;27;20095;-79
2023/11/20 04:44:43;;;;;;;9.67;1.50;;;10.90;99.90;;;;;;5148492;27;20041;-80
2023/11/20 04:47:11;;;;;;;6.40;1.07;;;11.00;99.90;;;;;;5152811;27;20023;-80
2023/11/20 04:49:38;;;;;;;7.10;1.43;;;11.00;99.90;;;;;;5151679;27;20034;-80
2023/11/20 04:52:03;;;;;;;6.47;1.17;;;10.90;99.90;;;;;;5155566;27;20016;-81
2023/11/20 04:54:29;;;;;;;6.13;1.47;;;11.00;99.90;;;;;;5153987;27;20031;-82
2023/11/20 04:56:58;;;;;;;5.37;1.43;;;11.00;99.90;;;;;;5153508;27;20031;-82
2023/11/20 04:59:27;;;;;;;4.27;1.13;;;11.00;99.90;;;;;;5148830;27;20020;-81
2023/11/20 05:01:53;;;;;;;6.67;1.10;;;11.00;99.90;;;;;;5148880;27;20019;-80
2023/11/20 05:04:24;;;;;;;9.77;1.63;;;10.90;99.90;;;;;;5154736;27;20090;-80
2023/11/20 05:06:50;;;;;;;3.93;1.10;;;10.90;99.90;;;;;;5153637;27;20041;-82
2023/11/20 05:09:17;;;;;;;5.83;1.50;;;10.80;99.90;;;;;;5149535;27;20046;-83
2023/11/20 05:11:46;;;;;;;5.77;1.40;;;10.90;99.90;;;;;;5154740;27;20015;-83
2023/11/20 05:14:12;;;;;;;10.10;1.40;;;10.90;99.90;;;;;;5154727;27;20049;-80
2023/11/20 05:16:38;;;;;;;3.97;1.43;;;11.00;99.90;;;;;;5142538;27;20011;-81
2023/11/20 05:19:03;;;;;;;8.47;1.63;;;10.90;99.90;;;;;;5152519;27;20047;-80
2023/11/20 05:21:31;;;;;;;8.87;1.33;;;10.90;99.90;;;;;;5149795;27;20027;-82
2023/11/20 05:24:00;;;;;;;7.77;1.63;;;10.90;99.90;;;;;;5145432;27;20053;-80
2023/11/20 05:26:25;;;;;;;6.30;1.10;;;10.90;99.90;;;;;;5148577;27;20020;-81
2023/11/20 05:28:54;;;;;;;9.10;1.83;;;11.00;99.90;;;;;;5146662;27;20036;-80
2023/11/20 05:31:21;;;;;;;8.27;1.80;;;10.90;99.90;;;;;;5155829;27;20019;-79
2023/11/20 05:33:47;;;;;;;8.20;1.60;;;11.00;99.90;;;;;;5156005;27;20035;-82
2023/11/20 05:36:16;;;;;;;12.80;1.90;;;11.00;99.90;;;;;;5150948;27;20020;-79
2023/11/20 05:38:43;;;;;;;9.93;2.10;;;10.90;99.90;;;;;;5155542;27;20023;-77
2023/11/20 05:41:09;;;;;;;12.80;2.07;;;10.90;99.90;;;;;;5152441;27;20011;-79
2023/11/20 05:43:36;;;;;;;7.90;1.60;;;10.90;99.90;;;;;;5153610;27;20023;-79
2023/11/20 05:46:03;;;;;;;12.87;1.67;;;11.00;99.90;;;;;;5155869;27;20019;-79
2023/11/20 05:48:28;;;;;;;10.90;2.33;;;11.00;99.90;;;;;;5153349;27;20176;-79
2023/11/20 05:50:54;;;;;;;8.20;1.37;;;11.00;99.90;;;;;;5154631;27;20020;-81
2023/11/20 05:53:19;;;;;;;16.63;2.03;;;10.90;99.90;;;;;;5155118;27;20019;-82
2023/11/20 05:55:48;;;;;;;15.13;2.03;;;10.90;99.90;;;;;;5150343;27;20022;-80
2023/11/20 05:58:14;;;;;;;12.00;2.47;;;10.90;99.90;;;;;;5154818;27;20080;-81
2023/11/20 06:00:39;;;;;;;8.93;2.00;;;10.90;99.90;;;;;;5154269;27;20035;-80
2023/11/20 06:03:10;;;;;;;9.70;2.30;;;10.90;99.90;;;;;;5152428;27;20016;-80
2023/11/20 06:05:35;;;;;;;11.70;2.33;;;10.80;99.90;;;;;;5150543;27;20019;-78
2023/11/20 06:08:01;;;;;;;12.27;2.73;;;10.70;99.90;;;;;;5151853;27;20030;-78
2023/11/20 06:10:26;;;;;;;12.87;2.33;;;10.80;99.90;;;;;;5155008;27;20050;-81
2023/11/20 06:12:52;;;;;;;12.53;2.17;;;10.80;99.90;;;;;;5154055;27;20075;-81
2023/11/20 06:15:18;;;;;;;14.93;2.73;;;10.70;99.90;;;;;;5151390;27;20035;-78
2023/11/20 06:17:44;;;;;;;13.53;2.33;;;10.70;99.90;;;;;;5152475;27;20031;-75
2023/11/20 06:20:13;;;;;;;13.03;2.40;;;10.70;99.90;;;;;;5134982;27;20031;-78
2023/11/20 06:22:42;;;;;;;20.43;2.30;;;10.70;99.90;;;;;;5138000;27;20024;-78
2023/11/20 06:25:12;;;;;;;10.67;2.43;;;10.80;99.90;;;;;;5135707;27;20039;-80
2023/11/20 06:27:43;;;;;;;14.47;3.00;;;10.70;99.90;;;;;;5137942;27;20081;-78
2023/11/20 06:30:10;;;;;;;10.27;2.17;;;10.80;99.90;;;;;;5133829;27;20039;-77
2023/11/20 06:32:37;;;;;;;14.87;2.63;;;10.80;99.90;;;;;;5132764;27;20024;-76
2023/11/20 06:35:05;;;;;;;14.70;2.47;;;10.90;99.90;;;;;;5150157;27;20512;-77
2023/11/20 06:37:31;;;;;;;17.00;3.10;;;10.80;99.90;;;;;;5134870;27;20031;-76
2023/11/20 06:39:59;;;;;;;17.43;2.77;;;10.90;99.90;;;;;;5136252;27;20039;-75
2023/11/20 06:42:28;;;;;;;13.10;2.47;;;10.90;99.90;;;;;;5134889;27;20101;-75
2023/11/20 06:44:56;;;;;;;10.93;2.13;;;10.80;99.90;;;;;;5134771;27;20024;-79
2023/11/20 06:47:22;;;;;;;10.70;2.90;;;10.80;99.90;;;;;;5134531;27;20057;-77
2023/11/20 06:49:48;;;;;;;13.30;3.37;;;10.80;99.90;;;;;;5142168;27;20030;-77
2023/11/20 06:52:23;;;;;;;18.07;3.40;;;10.80;99.90;;;;;;5141588;27;20047;-77
2023/11/20 06:54:51;;;;;;;11.50;2.07;;;10.80;99.90;;;;;;5145389;27;20043;-78
2023/11/20 06:57:18;;;;;;;14.17;3.07;;;10.90;99.90;;;;;;5147414;27;20031;-75
2023/11/20 06:59:45;;;;;;;15.70;2.63;;;10.80;99.90;;;;;;5144312;27;20096;-76
2023/11/20 07:02:20;;;;;;;14.10;3.37;;;10.90;99.90;;;;;;5144134;27;20037;-76
2023/11/20 07:04:46;;;;;;;11.03;2.10;;;10.80;99.90;;;;;;5143327;27;20027;-78
2023/11/20 07:07:12;;;;;;;14.20;2.50;;;10.80;99.90;;;;;;5140739;27;20028;-80
2023/11/20 07:09:40;;;;;;;12.63;2.67;;;10.80;99.90;;;;;;5144188;27;20035;-76
2023/11/20 07:12:06;;;;;;;8.53;2.13;;;10.80;99.90;;;;;;5144759;27;20042;-78
2023/11/20 07:14:32;;;;;;;16.03;3.00;;;10.90;99.90;;;;;;5144566;27;20015;-81
2023/11/20 07:16:58;;;;;;;14.80;2.83;;;10.90;99.90;;;;;;5148883;27;20053;-79
2023/11/20 07:19:26;;;;;;;16.63;3.17;;;11.00;99.90;;;;;;5140028;27;20031;-77
2023/11/20 07:21:51;;;;;;;14.73;1.87;;;10.90;99.90;;;;;;5142255;27;20023;-81
2023/11/20 07:24:19;;;;;;;14.83;2.53;;;10.80;99.90;;;;;;5145441;27;20107;-79
2023/11/20 07:26:45;;;;;;;20.50;3.17;;;10.80;99.90;;;;;;5142920;27;20031;-76
2023/11/20 07:29:11;;;;;;;13.60;2.43;;;10.90;99.90;;;;;;5143220;27;20055;-79
2023/11/20 07:31:37;;;;;;;10.73;2.07;;;10.90;99.90;;;;;;5147517;27;20034;-75
2023/11/20 07:34:06;;;;;;;17.87;2.47;;;10.90;99.90;;;;;;5141996;27;20050;-75
2023/11/20 07:36:34;;;;;;;14.33;2.77;;;10.90;99.90;;;;;;5145326;27;20030;-79
2023/11/20 07:39:00;;;;;;;17.93;2.60;;;10.80;99.90;;;;;;5145084;27;20024;-77
2023/11/20 07:41:28;;;;;;;14.93;2.10;;;10.90;99.90;;;;;;5148040;27;20026;-79
2023/11/20 07:43:54;;;;;;;10.80;2.10;;;10.90;99.90;;;;;;5147401;27;20049;-76
2023/11/20 07:46:20;;;;;;;19.13;3.23;;;10.90;99.90;;;;;;5142527;27;20266;-76
2023/11/20 07:48:50;;;;;;;9.30;2.10;;;10.90;99.90;;;;;;5145535;27;20100;-76
2023/11/20 07:51:18;;;;;;;15.57;2.97;;;11.00;99.90;;;;;;5145617;27;20100;-77
2023/11/20 07:53:44;;;;;;;13.27;2.30;;;11.10;99.90;;;;;;5143615;27;20024;-78
2023/11/20 07:56:13;;;;;;;24.33;2.97;;;11.10;99.90;;;;;;5144083;27;20095;-78
2023/11/20 07:58:44;;;;;;;16.43;2.50;;;11.10;99.90;;;;;;5145121;27;20043;-79
2023/11/20 08:01:10;;;;;;;15.93;3.03;;;11.10;99.90;;;;;;5142347;27;20050;-80
2023/11/20 08:03:36;;;;;;;11.63;2.07;;;11.10;99.90;;;;;;5158232;27;20031;-78
2023/11/20 08:06:04;;;;;;;13.40;2.87;;;11.00;99.90;;;;;;5144419;27;20030;-76
2023/11/20 08:08:32;;;;;;;13.00;2.17;;;10.90;99.90;;;;;;5143999;27;20027;-77
2023/11/20 08:10:58;;;;;;;13.70;2.73;;;11.10;99.90;;;;;;5141718;27;20050;-78
2023/11/20 08:13:24;;;;;;;9.13;2.17;;;11.00;99.90;;;;;;5143925;27;20031;-80
2023/11/20 08:15:50;;;;;;;15.77;2.97;;;11.00;99.90;;;;;;5140234;27;20063;-77
2023/11/20 08:18:15;;;;;;;16.43;2.50;;;11.00;99.90;;;;;;5139354;27;20031;-78
2023/11/20 08:20:41;;;;;;;8.67;2.20;;;11.10;99.90;;;;;;5145614;27;20028;-77
2023/11/20 08:23:07;;;;;;;14.90;2.13;;;11.10;99.90;;;;;;5151624;27;20042;-78
2023/11/20 08:25:33;;;;;;;9.20;1.53;;;11.10;99.90;;;;;;5144829;27;20062;-79
2023/11/20 08:28:03;;;;;;;9.10;2.30;;;11.30;99.90;;;;;;5148299;27;20062;-80
2023/11/20 08:30:32;;;;;;;11.53;2.77;;;11.30;99.90;;;;;;5146852;27;20031;-77
2023/11/20 08:33:00;;;;;;;13.97;3.67;;;11.30;99.90;;;;;;5143857;27;20027;-78
2023/11/20 08:35:29;;;;;;;15.93;2.57;;;11.30;99.90;;;;;;5149034;27;20025;-78
2023/11/20 08:37:55;;;;;;;11.47;1.77;;;11.40;99.90;;;;;;5151508;27;20294;-77
2023/11/20 08:40:31;;;;;;;;;;;;;;;;;;;;;
2023/11/20 08:42:57;;;;;;;17.73;2.57;;;11.50;99.90;;;;;;5139536;27;20046;-78
2023/11/20 08:45:31;;;;;;;7.60;1.77;;;11.50;99.90;;;;;;5136086;28;20035;-79
2023/11/20 08:47:57;;;;;;;8.20;2.20;;;11.50;99.90;;;;;;5134490;28;20035;-77
2023/11/20 08:50:25;;;;;;;11.07;2.57;;;11.60;99.90;;;;;;5136199;28;20071;-78
2023/11/20 08:52:54;;;;;;;12.97;2.47;;;11.40;99.90;;;;;;5136290;27;20047;-77
2023/11/20 08:55:20;;;;;;;15.77;2.43;;;11.60;99.90;;;;;;5141014;27;20047;-78
2023/11/20 08:57:46;;;;;;;14.23;2.10;;;11.70;99.90;;;;;;5140439;27;20031;-76
2023/11/20 09:00:14;;;;;;;15.13;2.07;;;11.70;99.90;;;;;;5138161;27;20117;-80
2023/11/20 09:02:43;;;;;;;9.50;2.07;;;11.70;99.90;;;;;;5146061;27;20114;-77
2023/11/20 09:05:13;;;;;;;12.40;2.03;;;11.60;99.90;;;;;;5143060;27;20147;-77
2023/11/20 09:07:40;;;;;;;11.03;1.70;;;11.70;99.90;;;;;;5148461;27;20276;-79
2023/11/20 09:10:08;;;;;;;8.30;2.00;;;11.70;99.90;;;;;;5141295;27;20140;-78
2023/11/20 09:12:36;;;;;;;9.73;1.53;;;11.60;99.90;;;;;;5144768;27;20024;-77
2023/11/20 09:15:04;;;;;;;9.40;1.20;;;11.60;99.90;;;;;;5142556;27;20058;-77
2023/11/20 09:17:30;;;;;;;11.80;1.93;;;11.70;99.90;;;;;;5141549;27;20760;-78
2023/11/20 09:19:59;;;;;;;8.87;1.70;;;11.60;99.90;;;;;;5139066;27;20026;-80
2023/11/20 09:22:25;;;;;;;9.87;1.80;;;11.50;99.90;;;;;;5155395;27;20031;-78
2023/11/20 09:24:51;;;;;;;11.27;1.93;;;11.50;99.90;;;;;;5137058;27;20031;-81
2023/11/20 09:27:21;;;;;;;10.63;2.40;;;11.40;99.90;;;;;;5137941;27;20303;-80
2023/11/20 09:29:47;;;;;;;8.33;1.57;;;11.30;99.90;;;;;;5138283;27;20043;-79
2023/11/20 09:32:13;;;;;;;11.10;2.20;;;11.30;99.90;;;;;;5136907;27;20031;-78
2023/11/20 09:34:39;;;;;;;8.33;1.67;;;11.20;99.90;;;;;;5136531;27;20081;-76
2023/11/20 09:37:07;;;;;;;15.20;2.13;;;11.30;99.90;;;;;;5137833;27;20031;-77
2023/11/20 09:39:34;;;;;;;12.60;1.70;;;11.30;99.90;;;;;;5134153;27;20015;-79
2023/11/20 09:42:03;;;;;;;8.87;1.53;;;11.50;99.90;;;;;;5130920;27;20479;-78
2023/11/20 09:44:52;;;;;;;7.37;1.57;;;11.50;99.90;;;;;;5139091;27;20083;-76
2023/11/20 09:47:18;;;;;;;5.43;1.20;;;11.50;99.90;;;;;;5142783;27;20027;-77
2023/11/20 09:49:55;;;;;;;8.20;1.50;;;11.50;99.90;;;;;;5139320;27;20050;-73
2023/11/20 09:52:29;;;;;;;7.17;1.17;;;11.50;99.90;;;;;;5156001;27;20090;-79
2023/11/20 09:54:58;;;;;;;7.93;1.43;;;11.40;99.90;;;;;;5137789;27;20023;-77
2023/11/20 09:57:31;;;;;;;5.83;0.83;;;11.50;99.90;;;;;;5136567;27;20019;-78
2023/11/20 09:59:57;;;;;;;6.97;1.30;;;11.50;99.90;;;;;;5136161;27;20031;-77
2023/11/20 10:02:28;;;;;;;7.97;2.03;;;11.70;99.90;;;;;;5137609;27;20035;-76
2023/11/20 10:04:56;;;;;;;6.37;1.13;;;11.70;99.90;;;;;;5139636;27;20088;-77
2023/11/20 10:07:30;;;;;;;7.67;1.60;;;11.70;99.90;;;;;;5141255;27;20134;-77
2023/11/20 10:09:57;;;;;;;4.33;1.37;;;11.70;99.90;;;;;;5138985;27;20094;-76
2023/11/20 10:12:35;;;;;;;6.47;1.43;;;11.70;99.90;;;;;;5134508;27;20034;-79
2023/11/20 10:15:01;;;;;;;8.10;1.57;;;11.80;99.90;;;;;;5143999;27;20028;-78
2023/11/20 10:17:28;;;;;;;5.77;1.23;;;11.70;99.90;;;;;;5134969;27;20048;-78
2023/11/20 10:19:54;;;;;;;11.00;1.43;;;11.70;99.90;;;;;;5135622;27;20035;-77
2023/11/20 10:22:27;;;;;;;4.40;1.10;;;11.60;99.90;;;;;;5133298;27;20015;-79
2023/11/20 10:24:55;;;;;;;8.50;1.67;;;11.60;99.90;;;;;;5136307;27;20027;-78
2023/11/20 10:27:22;;;;;;;10.27;2.07;;;11.60;99.90;;;;;;5141998;27;20055;-79
2023/11/20 10:29:49;;;;;;;4.10;0.87;;;11.70;99.90;;;;;;5136971;27;20027;-78
2023/11/20 10:32:18;;;;;;;7.03;1.43;;;11.70;99.90;;;;;;5135187;27;20106;-78
2023/11/20 10:34:44;;;;;;;5.90;1.50;;;11.70;99.90;;;;;;5142225;27;20250;-79
2023/11/20 10:37:21;;;;;;;12.47;1.80;;;11.70;99.90;;;;;;5139151;27;20019;-76
2023/11/20 10:39:49;;;;;;;8.93;2.57;;;11.60;99.90;;;;;;5152857;27;20019;-77
2023/11/20 10:42:16;;;;;;;6.30;1.17;;;11.50;99.90;;;;;;5145190;27;20031;-80
2023/11/20 10:44:44;;;;;;;3.83;0.83;;;11.40;99.90;;;;;;5156173;27;20019;-78
2023/11/20 10:47:13;;;;;;;5.87;0.83;;;11.30;99.90;;;;;;5150081;27;20027;-80
2023/11/20 10:49:43;;;;;;;3.07;0.70;;;11.20;99.90;;;;;;5155272;27;20074;-77
2023/11/20 10:52:12;;;;;;;6.43;1.10;;;11.10;99.90;;;;;;5155838;27;20027;-81
2023/11/20 10:54:49;;;;;;;7.23;1.00;;;11.10;99.90;;;;;;5154597;27;20029;-77
2023/11/20 10:57:19;;;;;;;3.40;0.87;;;11.10;99.90;;;;;;5153541;27;20019;-81
2023/11/20 10:59:45;;;;;;;5.53;1.00;;;11.00;99.90;;;;;;5174942;27;20067;-81
2023/11/20 11:02:18;;;;;;;5.63;0.73;;;11.00;99.90;;;;;;5137316;27;20019;-81
2023/11/20 11:04:45;;;;;;;6.53;0.90;;;11.00;99.90;;;;;;5150272;27;20024;-82
2023/11/20 11:07:16;;;;;;;4.67;1.10;;;11.00;99.90;;;;;;5150658;27;20016;-81
2023/11/20 11:09:44;;;;;;;4.53;0.97;;;11.10;99.90;;;;;;5154165;27;20038;-81
2023/11/20 11:12:14;;;;;;;6.23;1.20;;;11.00;99.90;;;;;;5152818;27;20463;-82
2023/11/20 11:14:40;;;;;;;3.87;1.43;;;11.10;99.90;;;;;;5150812;27;20016;-80
2023/11/20 11:17:10;;;;;;;8.17;1.27;;;11.10;99.90;;;;;;5153492;27;20015;-81
2023/11/20 11:19:45;;;;;;;4.93;0.90;;;11.10;99.90;;;;;;5156099;27;20087;-80
2023/11/20 11:22:15;;;;;;;3.90;0.80;;;11.20;99.90;;;;;;5145446;27;20023;-79
2023/11/20 11:24:48;;;;;;;5.17;1.37;;;11.30;99.90;;;;;;5154026;27;20028;-80
2023/11/20 11:27:26;;;;;;;5.70;1.13;;;11.30;99.90;;;;;;5154161;27;20022;-79
2023/11/20 11:29:56;;;;;;;7.60;0.87;;;11.20;99.90;;;;;;5150233;27;20027;-79
2023/11/20 11:33:02;;;;;;;6.73;1.10;;;10.80;99.90;;;;;;5150009;27;20019;-79
2023/11/20 11:36:08;;;;;;;10.20;1.10;;;10.60;99.90;;;;;;5154543;27;20031;-80
2023/11/20 11:39:06;;;;;;;4.77;1.10;;;10.30;99.90;;;;;;5072250;28;20096;-79
2023/11/20 11:41:48;;;;;;;2.27;0.60;;;10.10;99.90;;;;;;5032730;28;20026;-79
2023/11/20 11:44:38;;;;;;;5.65;1.05;;;9.90;99.90;;;;;;5015584;28;20053;-78
2023/11/20 11:47:09;;;;;;;9.30;2.17;;;10.00;99.90;;;;;;5048000;28;20030;-80
2023/11/20 11:49:37;;;;;;;10.10;1.70;;;10.00;99.90;;;;;;5032762;28;20060;-80
2023/11/20 11:52:08;;;;;;;5.40;1.20;;;9.80;99.90;;;;;;5015112;28;20107;-81
2023/11/20 11:54:34;;;;;;;5.00;2.00;;;9.90;99.90;;;;;;5016978;28;20010;-79
2023/11/20 11:57:07;;;;;;;7.47;1.90;;;9.90;99.90;;;;;;5042754;28;20280;-78
2023/11/20 11:59:40;;;;;;;9.77;3.03;;;9.90;99.90;;;;;;5053552;28;20029;-81
2023/11/20 12:02:12;;;;;;;8.63;1.67;;;10.00;99.90;;;;;;5052285;28;20044;-82
2023/11/20 12:04:56;;;;;;;6.50;1.58;;;10.20;99.90;;;;;;5053241;28;20027;-81
2023/11/20 12:07:52;;;;;;;6.33;1.37;;;10.10;99.90;;;;;;5053408;28;20060;-79
2023/11/20 12:10:49;;;;;;;6.07;1.33;;;10.00;99.90;;;;;;5069933;28;20045;-80
2023/11/20 12:13:20;;;;;;;4.70;1.00;;;10.00;99.90;;;;;;5074304;28;20039;-78
2023/11/20 12:15:47;;;;;;;6.60;1.30;;;10.00;99.90;;;;;;5105643;28;20027;-80
2023/11/20 12:18:32;;;;;;;7.77;1.57;;;10.10;99.90;;;;;;5111914;28;20047;-76
2023/11/20 12:20:59;;;;;;;6.47;1.10;;;10.10;99.90;;;;;;5097077;28;20007;-75
2023/11/20 12:23:33;;;;;;;3.10;1.30;;;10.10;99.90;;;;;;5113812;28;20115;-76
2023/11/20 12:26:01;;;;;;;6.10;1.40;;;10.10;99.90;;;;;;5101254;28;20032;-74
2023/11/20 12:28:36;;;;;;;5.63;1.13;;;10.00;99.90;;;;;;5130900;27;20149;-77
2023/11/20 12:31:06;;;;;;;8.67;2.00;;;10.10;99.90;;;;;;5139833;27;20126;-77
2023/11/20 12:33:36;;;;;;;5.33;1.40;;;10.10;99.90;;;;;;5147709;27;20144;-79
2023/11/20 12:36:04;;;;;;;7.80;1.57;;;10.10;99.90;;;;;;5124282;27;20033;-75
2023/11/20 12:38:35;;;;;;;5.97;1.43;;;10.10;99.90;;;;;;5138344;27;20034;-76
2023/11/20 12:41:05;;;;;;;6.60;1.70;;;10.10;99.90;;;;;;5141429;27;20091;-76
2023/11/20 12:43:31;;;;;;;7.40;1.23;;;10.20;99.90;;;;;;5139056;27;20016;-76
2023/11/20 12:46:00;;;;;;;6.67;1.30;;;10.20;99.90;;;;;;5137490;27;20073;-78
2023/11/20 12:48:28;;;;;;;10.87;1.90;;;10.20;99.90;;;;;;5148165;27;20028;-76
2023/11/20 12:50:54;;;;;;;6.37;1.30;;;10.10;99.90;;;;;;5139948;27;20036;-77